createdAt,value
2023-01-17T00:02:09.870Z,10.27
2023-01-17T00:04:58.193Z,10.25
2023-01-17T00:10:28.900Z,7.50
2023-01-17T00:12:59.306Z,9.02
2023-01-17T00:15:30.926Z,9.98
2023-01-17T00:18:00.250Z,9.48
2023-01-17T00:20:47.950Z,9.18
2023-01-17T00:23:35.657Z,8.68
2023-01-17T00:26:05.054Z,9.18
2023-01-17T00:28:34.481Z,8.63
2023-01-17T00:31:06.403Z,9.70
2023-01-17T00:33:33.976Z,10.07
2023-01-17T00:36:02.173Z,8.77
2023-01-17T00:38:31.368Z,9.63
2023-01-17T00:41:02.612Z,9.20
2023-01-17T00:43:49.174Z,9.02
2023-01-17T00:46:37.009Z,9.00
2023-01-17T00:49:23.541Z,10.02
2023-01-17T00:52:09.814Z,9.10
2023-01-17T00:54:55.901Z,9.95
2023-01-17T00:57:41.907Z,9.95
2023-01-17T01:00:28.698Z,9.77
2023-01-17T01:03:15.943Z,9.20
2023-01-17T01:06:03.624Z,8.27
2023-01-17T01:08:49.595Z,9.40
2023-01-17T01:11:38.689Z,7.57
2023-01-17T01:14:26.277Z,9.52
2023-01-17T01:17:11.992Z,9.32
2023-01-17T01:19:59.193Z,9.55
2023-01-17T01:22:45.090Z,8.82
2023-01-17T01:25:31.187Z,8.88
2023-01-17T01:28:22.826Z,8.25
2023-01-17T01:31:08.997Z,9.10
2023-01-17T01:33:37.604Z,9.98
2023-01-17T01:36:09.799Z,9.20
2023-01-17T01:38:38.295Z,9.38
2023-01-17T01:41:07.330Z,10.00
2023-01-17T01:43:45.223Z,9.48
2023-01-17T01:46:18.152Z,9.90
2023-01-17T01:48:51.998Z,9.50
2023-01-17T01:51:26.595Z,10.32
2023-01-17T01:54:00.280Z,9.40
2023-01-17T01:56:30.533Z,10.30
2023-01-17T01:59:04.315Z,10.43
2023-01-17T02:01:37.325Z,10.63
2023-01-17T02:04:10.111Z,10.90
2023-01-17T02:06:43.342Z,10.30
2023-01-17T02:09:17.679Z,10.57
2023-01-17T02:11:48.098Z,10.07
2023-01-17T02:14:17.793Z,9.93
2023-01-17T02:17:04.264Z,9.90
2023-01-17T02:19:58.239Z,10.63
2023-01-17T02:22:50.522Z,9.68
2023-01-17T02:25:57.703Z,11.63
2023-01-17T02:28:43.198Z,9.02
2023-01-17T02:31:17.619Z,9.93
2023-01-17T02:33:56.705Z,11.15
2023-01-17T02:36:31.241Z,10.43
2023-01-17T02:39:06.096Z,10.95
2023-01-17T02:41:38.340Z,10.45
2023-01-17T02:44:10.193Z,8.30
2023-01-17T02:46:47.191Z,9.73
2023-01-17T02:49:17.334Z,9.63
2023-01-17T02:52:11.955Z,10.43
2023-01-17T02:55:01.391Z,8.65
2023-01-17T02:57:59.758Z,10.15
2023-01-17T03:00:39.370Z,10.02
2023-01-17T03:03:22.357Z,9.93
2023-01-17T03:05:56.033Z,9.50
2023-01-17T03:08:25.625Z,9.68
2023-01-17T03:10:54.421Z,9.95
2023-01-17T03:13:23.166Z,10.18
2023-01-17T03:15:51.934Z,9.30
2023-01-17T03:18:21.952Z,8.15
2023-01-17T03:20:50.428Z,10.85
2023-01-17T03:23:18.853Z,9.02
2023-01-17T03:25:47.247Z,9.50
2023-01-17T03:28:15.708Z,9.82
2023-01-17T03:30:45.194Z,9.13
2023-01-17T03:33:13.688Z,10.00
2023-01-17T03:35:43.463Z,8.40
2023-01-17T03:38:12.069Z,10.43
2023-01-17T03:40:40.517Z,9.45
2023-01-17T03:43:09.014Z,9.73
2023-01-17T03:48:06.438Z,8.57
2023-01-17T03:50:34.958Z,8.65
2023-01-17T03:53:04.850Z,8.20
2023-01-17T03:55:33.245Z,9.02
2023-01-17T03:58:01.595Z,7.50
2023-01-17T04:00:30.029Z,9.68
2023-01-17T04:02:58.540Z,8.10
2023-01-17T04:05:27.151Z,9.52
2023-01-17T04:10:25.125Z,7.35
2023-01-17T04:12:53.644Z,7.65
2023-01-17T04:15:22.057Z,9.10
2023-01-17T04:17:50.794Z,8.98
2023-01-17T04:20:28.608Z,9.20
2023-01-17T04:22:57.586Z,9.18
2023-01-17T04:25:29.996Z,9.25
2023-01-17T04:27:58.811Z,9.70
2023-01-17T04:30:28.059Z,10.75
2023-01-17T04:32:57.407Z,8.82
2023-01-17T04:35:26.570Z,7.60
2023-01-17T04:37:55.189Z,9.00
2023-01-17T04:42:54.409Z,6.90
2023-01-17T04:45:23.038Z,8.25
2023-01-17T04:50:21.113Z,10.10
2023-01-17T04:52:49.624Z,8.85
2023-01-17T04:55:18.147Z,9.48
2023-01-17T05:00:17.877Z,8.52
2023-01-17T05:02:46.532Z,10.50
2023-01-17T05:07:43.394Z,9.65
2023-01-17T05:12:40.958Z,8.70
2023-01-17T05:20:08.834Z,7.78
2023-01-17T05:22:37.373Z,9.65
2023-01-17T05:25:06.207Z,8.90
2023-01-17T05:27:34.735Z,9.60
2023-01-17T05:32:32.091Z,7.97
2023-01-17T05:37:31.801Z,7.18
2023-01-17T05:40:00.233Z,9.27
2023-01-17T05:42:29.154Z,8.80
2023-01-17T05:44:57.550Z,6.60
2023-01-17T05:47:26.128Z,8.38
2023-01-17T05:49:54.582Z,7.00
2023-01-17T05:52:24.490Z,8.52
2023-01-17T05:54:53.003Z,8.07
2023-01-17T05:57:21.446Z,8.02
2023-01-17T05:59:49.831Z,8.90
2023-01-17T06:02:18.424Z,6.72
2023-01-17T06:07:15.063Z,6.13
2023-01-17T06:09:45.039Z,7.15
2023-01-17T06:12:13.449Z,7.15
2023-01-17T06:14:41.853Z,7.20
2023-01-17T06:17:10.416Z,7.60
2023-01-17T06:19:38.799Z,6.57
2023-01-17T06:22:07.205Z,8.45
2023-01-17T06:24:35.879Z,6.88
2023-01-17T06:29:33.938Z,7.20
2023-01-17T06:32:03.116Z,6.18
2023-01-17T06:34:31.547Z,8.00
2023-01-17T06:36:59.968Z,7.00
2023-01-17T06:39:28.478Z,7.65
2023-01-17T06:41:57.058Z,8.30
2023-01-17T06:46:57.261Z,5.80
2023-01-17T06:49:25.719Z,6.07
2023-01-17T06:51:54.123Z,7.68
2023-01-17T06:54:22.611Z,6.20
2023-01-17T06:56:51.017Z,6.53
2023-01-17T06:59:19.460Z,6.88
2023-01-17T07:01:49.412Z,7.65
2023-01-17T07:04:18.032Z,7.65
2023-01-17T07:09:14.690Z,7.10
2023-01-17T07:11:45.388Z,6.70
2023-01-17T07:14:15.492Z,5.93
2023-01-17T07:16:46.243Z,8.05
2023-01-17T07:19:16.381Z,5.72
2023-01-17T07:21:44.971Z,7.40
2023-01-17T07:24:13.501Z,7.40
2023-01-17T07:26:41.937Z,7.43
2023-01-17T07:29:10.373Z,8.38
2023-01-17T07:31:40.565Z,7.15
2023-01-17T07:34:09.153Z,7.47
2023-01-17T07:36:39.146Z,6.72
2023-01-17T07:39:07.678Z,7.68
2023-01-17T07:41:41.485Z,6.70
2023-01-17T07:44:11.762Z,7.85
2023-01-17T07:46:40.339Z,6.13
2023-01-17T07:49:08.942Z,8.52
2023-01-17T07:54:07.198Z,7.30
2023-01-17T07:56:36.077Z,7.57
2023-01-17T07:59:04.888Z,8.65
2023-01-17T08:01:33.896Z,7.93
2023-01-17T08:04:08.429Z,8.93
2023-01-17T08:06:42.419Z,8.52
2023-01-17T08:09:13.340Z,9.38
2023-01-17T08:11:46.665Z,8.50
2023-01-17T08:14:39.071Z,8.75
2023-01-17T08:17:08.229Z,7.47
2023-01-17T08:19:37.254Z,8.48
2023-01-17T08:22:09.715Z,8.13
2023-01-17T08:24:38.991Z,7.75
2023-01-17T08:27:09.080Z,9.40
2023-01-17T08:29:42.185Z,8.60
2023-01-17T08:32:10.760Z,9.57
2023-01-17T08:34:39.304Z,9.18
2023-01-17T08:37:09.123Z,9.27
2023-01-17T08:39:40.579Z,10.35
2023-01-17T08:42:09.155Z,8.93
2023-01-17T08:44:41.018Z,9.02
2023-01-17T08:47:11.978Z,9.82
2023-01-17T08:49:40.999Z,10.50
2023-01-17T08:52:18.859Z,10.07
2023-01-17T08:54:57.690Z,9.50
2023-01-17T08:58:30.657Z,11.77
2023-01-17T09:01:26.358Z,10.73
2023-01-17T09:04:01.137Z,9.60
2023-01-17T09:06:30.245Z,9.60
2023-01-17T09:09:00.314Z,11.05
2023-01-17T09:11:28.943Z,10.60
2023-01-17T09:13:57.499Z,10.20
2023-01-17T09:18:56.221Z,9.75
2023-01-17T09:21:26.148Z,10.60
2023-01-17T09:24:05.771Z,9.90
2023-01-17T09:26:45.513Z,10.38
2023-01-17T09:29:17.874Z,11.52
2023-01-17T09:31:48.303Z,16.88
2023-01-17T09:34:18.692Z,11.80
2023-01-17T09:36:47.802Z,10.68
2023-01-17T09:39:16.411Z,10.20
2023-01-17T09:44:28.013Z,10.93
2023-01-17T09:47:01.001Z,9.95
2023-01-17T09:49:38.059Z,9.05
2023-01-17T09:52:08.460Z,10.25
2023-01-17T09:54:40.240Z,11.73
2023-01-17T09:57:30.021Z,10.93
2023-01-17T10:00:07.860Z,10.10
2023-01-17T10:02:55.962Z,11.90
2023-01-17T10:05:36.582Z,10.18
2023-01-17T10:08:18.004Z,10.77
2023-01-17T10:11:00.027Z,11.00
2023-01-17T10:13:42.842Z,11.70
2023-01-17T10:16:26.525Z,10.38
2023-01-17T10:19:16.612Z,9.48
2023-01-17T10:22:02.368Z,9.88
2023-01-17T10:24:59.008Z,8.65
2023-01-17T10:27:31.751Z,9.30
2023-01-17T10:30:13.856Z,11.50
2023-01-17T10:32:49.364Z,10.77
2023-01-17T10:35:23.279Z,11.07
2023-01-17T10:37:59.099Z,11.38
2023-01-17T10:40:38.535Z,11.60
2023-01-17T10:43:18.013Z,10.98
2023-01-17T10:45:54.593Z,11.77
2023-01-17T10:48:35.021Z,9.77
2023-01-17T10:51:15.881Z,11.88
2023-01-17T10:53:56.155Z,10.02
2023-01-17T10:56:28.521Z,11.20
2023-01-17T10:59:22.959Z,11.63
2023-01-17T11:01:53.048Z,13.30
2023-01-17T11:04:24.950Z,10.07
2023-01-17T11:07:12.448Z,12.38
2023-01-17T11:09:42.239Z,12.63
2023-01-17T11:12:20.658Z,12.52
2023-01-17T11:15:07.596Z,10.82
2023-01-17T11:17:39.989Z,14.02
2023-01-17T11:20:17.264Z,13.20
2023-01-17T11:22:50.191Z,13.73
2023-01-17T11:25:23.321Z,12.68
2023-01-17T11:28:01.632Z,14.00
2023-01-17T11:30:30.919Z,12.60
2023-01-17T11:33:04.307Z,14.00
2023-01-17T11:35:35.560Z,13.02
2023-01-17T11:38:13.390Z,12.00
2023-01-17T11:40:44.024Z,13.40
2023-01-17T11:43:23.263Z,12.95
2023-01-17T11:46:17.153Z,11.60
2023-01-17T11:48:55.046Z,11.00
2023-01-17T11:51:28.170Z,12.93
2023-01-17T11:54:08.671Z,12.68
2023-01-17T11:56:38.370Z,12.35
2023-01-17T11:59:31.686Z,10.88
2023-01-17T12:02:38.355Z,12.50
2023-01-17T12:05:29.405Z,11.32
2023-01-17T12:08:10.118Z,11.25
2023-01-17T12:10:47.771Z,11.40
2023-01-17T12:13:44.564Z,12.03
2023-01-17T12:16:33.823Z,13.60
2023-01-17T12:19:15.377Z,12.73
2023-01-17T12:26:36.348Z,9.50
2023-01-17T12:29:42.277Z,13.35
2023-01-17T12:32:45.736Z,12.25
2023-01-17T12:35:19.184Z,12.95
2023-01-17T12:38:03.721Z,12.10
2023-01-17T12:40:37.826Z,11.05
2023-01-17T12:43:18.992Z,12.27
2023-01-17T12:45:50.582Z,11.52
2023-01-17T12:48:20.747Z,13.10
2023-01-17T12:50:55.435Z,12.68
2023-01-17T12:53:40.621Z,12.20
2023-01-17T12:56:15.811Z,13.00
2023-01-17T12:58:48.631Z,11.82
2023-01-17T13:01:30.944Z,11.77
2023-01-17T13:04:11.185Z,12.43
2023-01-17T13:06:53.370Z,12.30
2023-01-17T13:09:24.996Z,10.75
2023-01-17T13:11:58.263Z,11.15
2023-01-17T13:14:28.517Z,12.23
2023-01-17T13:17:00.550Z,10.80
2023-01-17T13:19:42.250Z,11.80
2023-01-17T13:22:18.307Z,12.60
2023-01-17T13:24:56.647Z,11.52
2023-01-17T13:27:55.944Z,10.53
2023-01-17T13:30:52.663Z,12.00
2023-01-17T13:33:42.417Z,11.85
2023-01-17T13:36:28.608Z,12.05
2023-01-17T13:39:18.339Z,11.85
2023-01-17T13:41:51.851Z,11.63
2023-01-17T13:44:24.353Z,10.85
2023-01-17T13:47:00.907Z,12.13
2023-01-17T13:49:48.567Z,10.68
2023-01-17T13:52:33.516Z,10.70
2023-01-17T13:55:04.223Z,11.25
2023-01-17T13:57:42.285Z,11.05
2023-01-17T14:00:59.242Z,10.75
2023-01-17T14:04:01.327Z,9.88
2023-01-17T14:06:40.762Z,11.00
2023-01-17T14:09:17.026Z,11.05
2023-01-17T14:11:54.718Z,11.18
2023-01-17T14:14:51.349Z,11.13
2023-01-17T14:17:57.110Z,10.07
2023-01-17T14:21:04.607Z,10.95
2023-01-17T14:24:03.941Z,10.93
2023-01-17T14:26:42.557Z,11.45
2023-01-17T14:29:56.963Z,10.13
2023-01-17T14:32:30.554Z,11.18
2023-01-17T14:34:59.958Z,10.77
2023-01-17T14:37:39.433Z,10.73
2023-01-17T14:40:21.940Z,11.88
2023-01-17T14:42:59.291Z,10.80
2023-01-17T14:45:30.319Z,12.48
2023-01-17T14:48:00.139Z,10.32
2023-01-17T14:50:31.010Z,9.55
2023-01-17T14:53:28.143Z,9.50
2023-01-17T14:56:00.907Z,11.07
2023-01-17T14:58:32.126Z,11.52
2023-01-17T15:01:03.017Z,10.50
2023-01-17T15:03:36.847Z,9.77
2023-01-17T15:06:13.558Z,9.82
2023-01-17T15:08:44.481Z,10.50
2023-01-17T15:11:21.358Z,9.90
2023-01-17T15:13:54.407Z,10.30
2023-01-17T15:16:28.746Z,10.05
2023-01-17T15:18:58.568Z,10.40
2023-01-17T15:21:30.286Z,11.75
2023-01-17T15:24:02.524Z,10.05
2023-01-17T15:26:42.296Z,9.38
2023-01-17T15:29:17.624Z,10.65
2023-01-17T15:31:48.494Z,10.43
2023-01-17T15:34:26.412Z,12.30
2023-01-17T15:36:58.074Z,10.88
2023-01-17T15:39:30.451Z,11.07
2023-01-17T15:42:03.473Z,11.35
2023-01-17T15:44:48.515Z,11.05
2023-01-17T15:47:32.598Z,13.07
2023-01-17T15:50:02.669Z,11.95
2023-01-17T15:52:32.283Z,10.93
2023-01-17T15:55:13.747Z,11.65
2023-01-17T15:57:48.131Z,10.98
2023-01-17T16:00:22.770Z,11.02
2023-01-17T16:02:56.047Z,11.32
2023-01-17T16:05:35.404Z,12.90
2023-01-17T16:08:30.689Z,10.73
2023-01-17T16:11:02.563Z,9.57
2023-01-17T16:13:35.824Z,11.90
2023-01-17T16:16:13.027Z,11.05
2023-01-17T16:18:42.911Z,9.05
2023-01-17T16:21:26.748Z,10.50
2023-01-17T16:23:56.601Z,10.80
2023-01-17T16:26:26.279Z,11.55
2023-01-17T16:28:56.742Z,12.10
2023-01-17T16:31:25.713Z,10.77
2023-01-17T16:33:56.776Z,10.73
2023-01-17T16:36:25.550Z,10.07
2023-01-17T16:44:05.667Z,10.88
2023-01-17T16:46:38.222Z,11.50
2023-01-17T16:49:07.563Z,9.68
2023-01-17T16:51:36.270Z,10.35
2023-01-17T16:56:36.524Z,10.05
2023-01-17T17:01:36.036Z,11.30
2023-01-17T17:04:04.962Z,9.88
2023-01-17T17:06:34.629Z,9.85
2023-01-17T17:09:03.796Z,10.73
2023-01-17T17:11:32.450Z,10.82
2023-01-17T17:16:33.065Z,9.73
2023-01-17T17:19:04.512Z,11.75
2023-01-17T17:21:34.459Z,9.50
2023-01-17T17:24:03.604Z,11.18
2023-01-17T17:26:35.421Z,12.25
2023-01-17T17:29:10.658Z,11.68
2023-01-17T17:31:42.649Z,11.20
2023-01-17T17:34:15.281Z,10.10
2023-01-17T17:36:44.878Z,11.75
2023-01-17T17:39:15.956Z,11.05
2023-01-17T17:41:45.975Z,11.50
2023-01-17T17:44:15.318Z,10.05
2023-01-17T17:46:49.577Z,8.95
2023-01-17T17:49:18.525Z,9.95
2023-01-17T17:51:47.810Z,8.55
2023-01-17T17:54:18.174Z,8.90
2023-01-17T17:56:48.749Z,9.45
2023-01-17T17:59:19.818Z,10.07
2023-01-17T18:01:50.656Z,8.68
2023-01-17T18:04:21.922Z,9.70
2023-01-17T18:06:51.011Z,10.60
2023-01-17T18:09:22.158Z,10.27
2023-01-17T18:11:50.908Z,10.90
2023-01-17T18:16:52.946Z,9.27
2023-01-17T18:19:24.241Z,8.02
2023-01-17T18:21:53.954Z,9.82
2023-01-17T18:24:24.679Z,9.38
2023-01-17T18:26:54.431Z,8.13
2023-01-17T18:29:24.305Z,8.80
2023-01-17T18:31:55.632Z,9.10
2023-01-17T18:34:27.334Z,8.20
2023-01-17T18:36:56.851Z,9.15
2023-01-17T18:39:28.278Z,10.93
2023-01-17T18:41:57.895Z,9.60
2023-01-17T18:44:27.498Z,9.45
2023-01-17T18:47:02.347Z,9.52
2023-01-17T18:49:32.849Z,9.82
2023-01-17T18:52:02.022Z,9.13
2023-01-17T18:54:32.332Z,6.65
2023-01-17T18:57:01.113Z,9.13
2023-01-17T19:02:00.225Z,7.72
2023-01-17T19:04:31.875Z,10.52
2023-01-17T19:07:00.998Z,9.25
2023-01-17T19:09:32.507Z,7.78
2023-01-17T19:12:01.390Z,7.85
2023-01-17T19:17:03.280Z,7.20
2023-01-17T19:19:33.837Z,8.05
2023-01-17T19:22:03.306Z,7.80
2023-01-17T19:24:32.428Z,9.90
2023-01-17T19:27:02.943Z,8.65
2023-01-17T19:29:32.433Z,7.43
2023-01-17T19:32:02.693Z,9.80
2023-01-17T19:34:31.558Z,8.07
2023-01-17T19:37:01.677Z,8.85
2023-01-17T19:39:31.563Z,9.43
2023-01-17T19:42:00.669Z,10.05
2023-01-17T19:44:32.087Z,8.15
2023-01-17T19:47:03.009Z,9.50
2023-01-17T19:49:36.347Z,8.60
2023-01-17T19:52:06.146Z,10.18
2023-01-17T19:54:37.459Z,9.38
2023-01-17T19:57:06.534Z,8.57
2023-01-17T19:59:35.425Z,10.00
2023-01-17T20:02:06.101Z,11.38
2023-01-17T20:04:35.086Z,10.02
2023-01-17T20:07:06.089Z,8.40
2023-01-17T20:09:36.175Z,10.20
2023-01-17T20:12:05.263Z,9.32
2023-01-17T20:14:34.379Z,9.60
2023-01-17T20:17:05.776Z,9.32
2023-01-17T20:19:34.712Z,9.13
2023-01-17T20:22:05.682Z,8.57
2023-01-17T20:24:34.581Z,8.68
2023-01-17T20:27:04.071Z,8.45
2023-01-17T20:29:35.436Z,9.88
2023-01-17T20:32:07.395Z,9.13
2023-01-17T20:34:45.406Z,9.63
2023-01-17T20:37:17.537Z,9.25
2023-01-17T20:39:48.468Z,9.38
2023-01-17T20:42:23.146Z,8.50
2023-01-17T20:44:54.301Z,8.98
2023-01-17T20:47:29.924Z,7.50
2023-01-17T20:50:04.761Z,10.27
2023-01-17T20:52:35.899Z,9.25
2023-01-17T20:55:10.012Z,9.27
2023-01-17T20:57:40.842Z,9.93
2023-01-17T21:00:15.157Z,12.40
2023-01-17T21:03:00.855Z,11.13
2023-01-17T21:05:34.119Z,9.73
2023-01-17T21:08:04.251Z,8.70
2023-01-17T21:10:36.602Z,8.82
2023-01-17T21:13:06.278Z,9.10
2023-01-17T21:15:48.804Z,9.60
2023-01-17T21:18:28.370Z,9.35
2023-01-17T21:21:08.780Z,8.38
2023-01-17T21:24:02.613Z,9.45
2023-01-17T21:26:39.289Z,7.70
2023-01-17T21:29:18.477Z,9.80
2023-01-17T21:31:54.975Z,9.20
2023-01-17T21:34:28.583Z,8.73
2023-01-17T21:37:00.826Z,9.63
2023-01-17T21:39:31.435Z,9.85
2023-01-17T21:42:00.429Z,9.32
2023-01-17T21:44:36.593Z,9.77
2023-01-17T21:47:05.674Z,8.98
2023-01-17T21:49:36.271Z,7.90
2023-01-17T21:52:19.456Z,8.85
2023-01-17T21:55:11.452Z,8.35
2023-01-17T21:58:00.459Z,7.85
2023-01-17T22:00:29.685Z,7.85
2023-01-17T22:02:59.137Z,9.30
2023-01-17T22:05:29.829Z,8.20
2023-01-17T22:08:15.363Z,7.68
2023-01-17T22:10:47.233Z,11.07
2023-01-17T22:13:18.009Z,9.32
2023-01-17T22:15:49.805Z,10.07
2023-01-17T22:18:18.953Z,10.30
2023-01-17T22:20:49.863Z,8.00
2023-01-17T22:23:18.779Z,8.38
2023-01-17T22:25:47.685Z,8.88
2023-01-17T22:28:17.287Z,8.50
2023-01-17T22:30:47.114Z,9.75
2023-01-17T22:33:16.063Z,10.27
2023-01-17T22:35:45.043Z,9.25
2023-01-17T22:38:15.113Z,8.85
2023-01-17T22:40:43.971Z,10.85
2023-01-17T22:43:12.788Z,8.75
2023-01-17T22:45:41.891Z,9.00
2023-01-17T22:48:11.177Z,8.27
2023-01-17T22:50:40.424Z,8.20
2023-01-17T22:53:10.609Z,8.43
2023-01-17T22:55:41.061Z,10.23
2023-01-17T22:58:10.083Z,9.05
2023-01-17T23:00:39.004Z,8.95
2023-01-17T23:03:07.932Z,9.90
2023-01-17T23:05:46.746Z,10.63
2023-01-17T23:08:15.431Z,10.45
2023-01-17T23:13:31.935Z,8.93
2023-01-17T23:16:23.866Z,10.75
2023-01-17T23:19:10.077Z,9.30
2023-01-17T23:21:56.317Z,10.32
2023-01-17T23:24:25.512Z,9.20
2023-01-17T23:27:12.280Z,9.07
2023-01-17T23:29:40.980Z,10.38
2023-01-17T23:34:38.233Z,11.27
2023-01-17T23:37:06.955Z,10.70
2023-01-17T23:44:51.768Z,9.52
2023-01-17T23:47:20.911Z,8.85
2023-01-17T23:49:50.160Z,11.02
2023-01-17T23:52:19.211Z,9.55
2023-01-17T23:54:49.661Z,9.38
2023-01-17T23:57:20.175Z,11.38
2023-01-17T23:59:48.941Z,9.50
